createdAt,value
2023-03-03T00:00:07.288Z,1017.35
2023-03-03T00:01:07.283Z,1017.35
2023-03-03T00:02:07.314Z,1017.34
2023-03-03T00:03:07.409Z,1017.29
2023-03-03T00:04:07.258Z,1017.31
2023-03-03T00:05:07.247Z,1017.33
2023-03-03T00:06:07.244Z,1017.31
2023-03-03T00:07:07.240Z,1017.34
2023-03-03T00:08:07.228Z,1017.31
2023-03-03T00:09:07.224Z,1017.32
2023-03-03T00:10:07.223Z,1017.34
2023-03-03T00:11:07.203Z,1017.35
2023-03-03T00:12:07.198Z,1017.31
2023-03-03T00:13:07.210Z,1017.30
2023-03-03T00:14:07.181Z,1017.28
2023-03-03T00:15:07.172Z,1017.27
2023-03-03T00:16:07.178Z,1017.26
2023-03-03T00:17:07.155Z,1017.31
2023-03-03T00:18:07.151Z,1017.28
2023-03-03T00:19:07.140Z,1017.28
2023-03-03T00:20:07.132Z,1017.35
2023-03-03T00:21:07.122Z,1017.32
2023-03-03T00:22:07.119Z,1017.38
2023-03-03T00:23:07.110Z,1017.37
2023-03-03T00:24:07.107Z,1017.40
2023-03-03T00:25:07.100Z,1017.38
2023-03-03T00:26:07.085Z,1017.41
2023-03-03T00:27:07.076Z,1017.38
2023-03-03T00:28:07.069Z,1017.42
2023-03-03T00:29:07.094Z,1017.41
2023-03-03T00:30:07.053Z,1017.46
2023-03-03T00:31:07.118Z,1017.45
2023-03-03T00:32:07.073Z,1017.49
2023-03-03T00:33:07.029Z,1017.41
2023-03-03T00:34:07.021Z,1017.42
2023-03-03T00:35:07.015Z,1017.42
2023-03-03T00:36:07.005Z,1017.39
2023-03-03T00:37:06.998Z,1017.39
2023-03-03T00:38:06.989Z,1017.39
2023-03-03T00:39:06.982Z,1017.37
2023-03-03T00:40:06.976Z,1017.41
2023-03-03T00:41:06.966Z,1017.40
2023-03-03T00:42:06.958Z,1017.43
2023-03-03T00:43:07.306Z,1017.49
2023-03-03T00:44:06.945Z,1017.49
2023-03-03T00:45:06.964Z,1017.52
2023-03-03T00:46:06.958Z,1017.49
2023-03-03T00:47:06.923Z,1017.53
2023-03-03T00:48:06.915Z,1017.56
2023-03-03T00:49:06.906Z,1017.57
2023-03-03T00:50:06.897Z,1017.60
2023-03-03T00:51:06.896Z,1017.57
2023-03-03T00:52:06.880Z,1017.60
2023-03-03T00:53:06.886Z,1017.54
2023-03-03T00:54:06.873Z,1017.53
2023-03-03T00:55:06.867Z,1017.49
2023-03-03T00:56:06.861Z,1017.53
2023-03-03T00:57:06.848Z,1017.51
2023-03-03T00:58:06.840Z,1017.48
2023-03-03T00:59:06.825Z,1017.50
2023-03-03T01:00:06.826Z,1017.56
2023-03-03T01:01:06.829Z,1017.57
2023-03-03T01:02:06.802Z,1017.56
2023-03-03T01:03:06.807Z,1017.60
2023-03-03T01:04:06.787Z,1017.64
2023-03-03T01:05:06.784Z,1017.62
2023-03-03T01:06:06.772Z,1017.68
2023-03-03T01:07:06.767Z,1017.72
2023-03-03T01:08:06.762Z,1017.69
2023-03-03T01:09:06.746Z,1017.67
2023-03-03T01:10:06.741Z,1017.68
2023-03-03T01:11:06.732Z,1017.74
2023-03-03T01:12:06.727Z,1017.74
2023-03-03T01:13:06.721Z,1017.69
2023-03-03T01:14:06.732Z,1017.78
2023-03-03T01:15:06.702Z,1017.74
2023-03-03T01:16:06.724Z,1017.71
2023-03-03T01:17:06.702Z,1017.73
2023-03-03T01:18:06.683Z,1017.75
2023-03-03T01:19:06.666Z,1017.74
2023-03-03T01:20:06.660Z,1017.72
2023-03-03T01:21:06.661Z,1017.71
2023-03-03T01:22:06.646Z,1017.71
2023-03-03T01:23:06.647Z,1017.73
2023-03-03T01:24:06.626Z,1017.81
2023-03-03T01:25:06.628Z,1017.78
2023-03-03T01:26:06.626Z,1017.74
2023-03-03T01:27:06.606Z,1017.75
2023-03-03T01:28:06.624Z,1017.73
2023-03-03T01:29:06.610Z,1017.76
2023-03-03T01:30:06.591Z,1017.77
2023-03-03T01:31:06.625Z,1017.78
2023-03-03T01:32:06.661Z,1017.81
2023-03-03T01:33:06.576Z,1017.83
2023-03-03T01:34:06.545Z,1017.88
2023-03-03T01:35:06.540Z,1017.83
2023-03-03T01:36:06.537Z,1017.82
2023-03-03T01:37:06.529Z,1017.87
2023-03-03T01:38:06.513Z,1017.88
2023-03-03T01:39:06.501Z,1017.84
2023-03-03T01:40:06.506Z,1017.89
2023-03-03T01:41:06.492Z,1017.89
2023-03-03T01:42:06.498Z,1017.90
2023-03-03T01:43:06.473Z,1017.84
2023-03-03T01:44:06.467Z,1017.88
2023-03-03T01:45:06.463Z,1017.88
2023-03-03T01:46:06.530Z,1017.88
2023-03-03T01:47:06.444Z,1017.90
2023-03-03T01:48:06.843Z,1017.89
2023-03-03T01:49:06.445Z,1017.94
2023-03-03T01:50:06.421Z,1017.97
2023-03-03T01:51:06.408Z,1017.89
2023-03-03T01:52:06.401Z,1017.92
2023-03-03T01:53:06.391Z,1017.96
2023-03-03T01:54:06.387Z,1017.96
2023-03-03T01:55:06.375Z,1017.95
2023-03-03T01:56:06.408Z,1017.94
2023-03-03T01:57:06.357Z,1017.89
2023-03-03T01:58:06.354Z,1017.87
2023-03-03T01:59:06.341Z,1017.89
2023-03-03T02:00:06.341Z,1017.87
2023-03-03T02:01:06.322Z,1017.88
2023-03-03T02:02:06.380Z,1017.84
2023-03-03T02:03:06.372Z,1017.85
2023-03-03T02:04:06.300Z,1017.80
2023-03-03T02:05:06.309Z,1017.80
2023-03-03T02:06:06.285Z,1017.82
2023-03-03T02:07:06.272Z,1017.83
2023-03-03T02:08:06.268Z,1017.82
2023-03-03T02:09:06.256Z,1017.84
2023-03-03T02:10:06.264Z,1017.81
2023-03-03T02:11:06.254Z,1017.82
2023-03-03T02:12:06.237Z,1017.84
2023-03-03T02:13:06.228Z,1017.87
2023-03-03T02:14:06.218Z,1017.87
2023-03-03T02:15:06.214Z,1017.87
2023-03-03T02:16:06.211Z,1017.79
2023-03-03T02:17:06.208Z,1017.77
2023-03-03T02:18:06.190Z,1017.78
2023-03-03T02:19:06.180Z,1017.77
2023-03-03T02:20:06.179Z,1017.74
2023-03-03T02:21:06.184Z,1017.70
2023-03-03T02:22:06.158Z,1017.73
2023-03-03T02:23:06.155Z,1017.76
2023-03-03T02:24:06.177Z,1017.79
2023-03-03T02:25:06.132Z,1017.78
2023-03-03T02:26:06.128Z,1017.84
2023-03-03T02:27:06.144Z,1017.83
2023-03-03T02:28:06.133Z,1017.88
2023-03-03T02:29:06.099Z,1017.92
2023-03-03T02:30:06.098Z,1017.90
2023-03-03T02:31:06.088Z,1017.95
2023-03-03T02:32:06.136Z,1017.98
2023-03-03T02:33:06.089Z,1017.97
2023-03-03T02:34:06.060Z,1017.94
2023-03-03T02:35:06.054Z,1017.95
2023-03-03T02:36:06.046Z,1017.92
2023-03-03T02:37:06.064Z,1017.91
2023-03-03T02:38:06.032Z,1018.00
2023-03-03T02:39:06.022Z,1018.00
2023-03-03T02:40:06.014Z,1018.03
2023-03-03T02:41:06.004Z,1018.03
2023-03-03T02:42:05.998Z,1017.99
2023-03-03T02:43:05.987Z,1017.98
2023-03-03T02:44:05.985Z,1017.98
2023-03-03T02:45:05.980Z,1017.94
2023-03-03T02:46:06.028Z,1017.94
2023-03-03T02:47:05.952Z,1017.93
2023-03-03T02:48:05.949Z,1017.90
2023-03-03T02:49:05.947Z,1017.91
2023-03-03T02:50:05.933Z,1017.94
2023-03-03T02:51:05.922Z,1017.91
2023-03-03T02:52:05.921Z,1017.95
2023-03-03T02:53:05.924Z,1017.96
2023-03-03T02:54:05.900Z,1017.97
2023-03-03T02:55:05.898Z,1017.98
2023-03-03T02:56:05.885Z,1017.97
2023-03-03T02:57:05.885Z,1017.94
2023-03-03T02:58:05.867Z,1017.93
2023-03-03T02:59:05.860Z,1017.93
2023-03-03T03:00:05.856Z,1017.91
2023-03-03T03:01:05.905Z,1017.90
2023-03-03T03:02:05.837Z,1017.90
2023-03-03T03:03:05.824Z,1017.92
2023-03-03T03:04:07.639Z,1017.96
2023-03-03T03:05:05.811Z,1017.95
2023-03-03T03:06:05.803Z,1018.02
2023-03-03T03:07:05.791Z,1018.08
2023-03-03T03:08:05.797Z,1018.06
2023-03-03T03:09:05.798Z,1018.11
2023-03-03T03:10:05.771Z,1018.11
2023-03-03T03:11:05.761Z,1018.12
2023-03-03T03:12:05.758Z,1018.15
2023-03-03T03:13:05.752Z,1018.13
2023-03-03T03:14:05.742Z,1018.17
2023-03-03T03:15:05.729Z,1018.19
2023-03-03T03:16:05.722Z,1018.21
2023-03-03T03:17:05.712Z,1018.20
2023-03-03T03:18:05.708Z,1018.23
2023-03-03T03:19:05.732Z,1018.19
2023-03-03T03:20:05.696Z,1018.20
2023-03-03T03:21:05.681Z,1018.19
2023-03-03T03:22:05.678Z,1018.24
2023-03-03T03:23:05.673Z,1018.24
2023-03-03T03:24:05.665Z,1018.30
2023-03-03T03:25:05.669Z,1018.29
2023-03-03T03:26:05.649Z,1018.25
2023-03-03T03:27:05.645Z,1018.26
2023-03-03T03:28:05.629Z,1018.22
2023-03-03T03:29:05.685Z,1018.18
2023-03-03T03:30:05.612Z,1018.20
2023-03-03T03:31:05.672Z,1018.18
2023-03-03T03:32:05.625Z,1018.23
2023-03-03T03:33:05.591Z,1018.21
2023-03-03T03:34:05.603Z,1018.21
2023-03-03T03:35:05.571Z,1018.18
2023-03-03T03:36:05.567Z,1018.15
2023-03-03T03:37:05.569Z,1018.16
2023-03-03T03:38:05.558Z,1018.14
2023-03-03T03:39:05.542Z,1018.14
2023-03-03T03:40:05.532Z,1018.17
2023-03-03T03:41:05.542Z,1018.21
2023-03-03T03:42:05.519Z,1018.24
2023-03-03T03:43:05.510Z,1018.27
2023-03-03T03:44:05.510Z,1018.27
2023-03-03T03:45:05.495Z,1018.27
2023-03-03T03:46:05.556Z,1018.25
2023-03-03T03:47:05.477Z,1018.18
2023-03-03T03:48:05.472Z,1018.21
2023-03-03T03:49:05.814Z,1018.19
2023-03-03T03:50:05.455Z,1018.17
2023-03-03T03:51:05.460Z,1018.18
2023-03-03T03:52:05.446Z,1018.18
2023-03-03T03:53:05.441Z,1018.15
2023-03-03T03:54:05.428Z,1018.19
2023-03-03T03:55:05.450Z,1018.21
2023-03-03T03:56:05.415Z,1018.20
2023-03-03T03:57:05.423Z,1018.20
2023-03-03T03:58:05.398Z,1018.23
2023-03-03T03:59:05.392Z,1018.25
2023-03-03T04:00:05.414Z,1018.30
2023-03-03T04:01:05.393Z,1018.32
2023-03-03T04:02:05.485Z,1018.33
2023-03-03T04:03:05.596Z,1018.30
2023-03-03T04:04:05.358Z,1018.28
2023-03-03T04:05:05.345Z,1018.26
2023-03-03T04:06:05.346Z,1018.18
2023-03-03T04:07:05.339Z,1018.15
2023-03-03T04:08:05.324Z,1018.09
2023-03-03T04:09:05.316Z,1018.05
2023-03-03T04:10:05.317Z,1018.11
2023-03-03T04:11:05.305Z,1018.07
2023-03-03T04:12:05.302Z,1018.11
2023-03-03T04:13:05.307Z,1018.12
2023-03-03T04:14:05.278Z,1018.11
2023-03-03T04:15:05.288Z,1018.14
2023-03-03T04:16:05.287Z,1018.17
2023-03-03T04:17:05.258Z,1018.22
2023-03-03T04:18:05.247Z,1018.17
2023-03-03T04:19:05.242Z,1018.21
2023-03-03T04:20:05.236Z,1018.21
2023-03-03T04:21:05.220Z,1018.20
2023-03-03T04:22:05.222Z,1018.22
2023-03-03T04:23:05.211Z,1018.29
2023-03-03T04:24:05.209Z,1018.29
2023-03-03T04:25:05.481Z,1018.28
2023-03-03T04:26:05.187Z,1018.31
2023-03-03T04:27:05.182Z,1018.32
2023-03-03T04:28:05.740Z,1018.39
2023-03-03T04:29:05.192Z,1018.37
2023-03-03T04:30:05.157Z,1018.35
2023-03-03T04:31:05.194Z,1018.36
2023-03-03T04:32:05.182Z,1018.31
2023-03-03T04:33:05.140Z,1018.22
2023-03-03T04:34:05.123Z,1018.24
2023-03-03T04:35:08.485Z,1018.26
2023-03-03T04:36:05.110Z,1018.27
2023-03-03T04:37:05.100Z,1018.28
2023-03-03T04:38:05.112Z,1018.35
2023-03-03T04:39:05.084Z,1018.41
2023-03-03T04:40:05.078Z,1018.37
2023-03-03T04:41:05.071Z,1018.37
2023-03-03T04:42:05.080Z,1018.33
2023-03-03T04:43:05.060Z,1018.34
2023-03-03T04:44:05.053Z,1018.33
2023-03-03T04:45:05.129Z,1018.32
2023-03-03T04:46:05.067Z,1018.34
2023-03-03T04:47:05.042Z,1018.31
2023-03-03T04:48:05.024Z,1018.31
2023-03-03T04:49:07.212Z,1018.26
2023-03-03T04:50:05.009Z,1018.26
2023-03-03T04:51:04.990Z,1018.29
2023-03-03T04:52:04.989Z,1018.29
2023-03-03T04:53:04.975Z,1018.32
2023-03-03T04:54:05.322Z,1018.33
2023-03-03T04:55:04.966Z,1018.35
2023-03-03T04:56:04.951Z,1018.40
2023-03-03T04:57:04.949Z,1018.40
2023-03-03T04:58:04.942Z,1018.40
2023-03-03T04:59:04.935Z,1018.39
2023-03-03T05:00:04.924Z,1018.40
2023-03-03T05:01:04.937Z,1018.42
2023-03-03T05:02:04.907Z,1018.41
2023-03-03T05:03:04.894Z,1018.44
2023-03-03T05:04:04.887Z,1018.41
2023-03-03T05:05:04.875Z,1018.36
2023-03-03T05:06:04.873Z,1018.40
2023-03-03T05:07:04.860Z,1018.37
2023-03-03T05:08:04.854Z,1018.44
2023-03-03T05:09:04.862Z,1018.33
2023-03-03T05:10:04.840Z,1018.42
2023-03-03T05:11:04.842Z,1018.37
2023-03-03T05:12:04.828Z,1018.33
2023-03-03T05:13:04.834Z,1018.29
2023-03-03T05:14:04.802Z,1018.32
2023-03-03T05:15:04.799Z,1018.31
2023-03-03T05:16:04.809Z,1018.32
2023-03-03T05:17:04.800Z,1018.38
2023-03-03T05:18:04.768Z,1018.41
2023-03-03T05:19:04.766Z,1018.42
2023-03-03T05:20:04.760Z,1018.47
2023-03-03T05:21:04.750Z,1018.44
2023-03-03T05:22:04.752Z,1018.42
2023-03-03T05:23:04.731Z,1018.42
2023-03-03T05:24:04.721Z,1018.44
2023-03-03T05:25:04.750Z,1018.40
2023-03-03T05:26:04.716Z,1018.41
2023-03-03T05:27:04.700Z,1018.42
2023-03-03T05:28:04.775Z,1018.45
2023-03-03T05:29:04.683Z,1018.49
2023-03-03T05:30:04.678Z,1018.46
2023-03-03T05:31:04.745Z,1018.46
2023-03-03T05:32:04.699Z,1018.46
2023-03-03T05:33:04.689Z,1018.45
2023-03-03T05:34:04.644Z,1018.44
2023-03-03T05:35:04.643Z,1018.43
2023-03-03T05:36:04.647Z,1018.45
2023-03-03T05:37:04.617Z,1018.41
2023-03-03T05:38:05.566Z,1018.39
2023-03-03T05:39:04.602Z,1018.43
2023-03-03T05:40:04.601Z,1018.45
2023-03-03T05:41:04.590Z,1018.46
2023-03-03T05:42:04.577Z,1018.48
2023-03-03T05:43:04.666Z,1018.48
2023-03-03T05:44:04.564Z,1018.43
2023-03-03T05:45:04.605Z,1018.47
2023-03-03T05:46:04.540Z,1018.48
2023-03-03T05:47:04.534Z,1018.47
2023-03-03T05:48:04.532Z,1018.51
2023-03-03T05:49:04.549Z,1018.47
2023-03-03T05:50:04.510Z,1018.49
2023-03-03T05:51:04.507Z,1018.49
2023-03-03T05:52:04.494Z,1018.49
2023-03-03T05:53:04.483Z,1018.48
2023-03-03T05:54:04.475Z,1018.44
2023-03-03T05:55:04.469Z,1018.41
2023-03-03T05:56:04.466Z,1018.37
2023-03-03T05:57:04.454Z,1018.34
2023-03-03T05:58:04.446Z,1018.45
2023-03-03T05:59:04.442Z,1018.42
2023-03-03T06:00:04.429Z,1018.49
2023-03-03T06:01:04.431Z,1018.50
2023-03-03T06:02:04.470Z,1018.50
2023-03-03T06:03:04.433Z,1018.47
2023-03-03T06:04:04.402Z,1018.45
2023-03-03T06:05:04.419Z,1018.45
2023-03-03T06:06:04.381Z,1018.48
2023-03-03T06:07:04.370Z,1018.48
2023-03-03T06:08:04.367Z,1018.50
2023-03-03T06:09:04.362Z,1018.55
2023-03-03T06:10:04.355Z,1018.58
2023-03-03T06:11:04.340Z,1018.57
2023-03-03T06:12:04.339Z,1018.58
2023-03-03T06:13:04.324Z,1018.61
2023-03-03T06:14:04.318Z,1018.66
2023-03-03T06:15:04.366Z,1018.65
2023-03-03T06:16:04.362Z,1018.70
2023-03-03T06:17:04.301Z,1018.70
2023-03-03T06:18:04.288Z,1018.70
2023-03-03T06:19:04.278Z,1018.69
2023-03-03T06:20:04.287Z,1018.73
2023-03-03T06:21:04.282Z,1018.76
2023-03-03T06:22:04.265Z,1018.74
2023-03-03T06:23:04.247Z,1018.80
2023-03-03T06:24:04.271Z,1018.83
2023-03-03T06:25:04.229Z,1018.82
2023-03-03T06:26:04.218Z,1018.79
2023-03-03T06:27:04.213Z,1018.83
2023-03-03T06:28:04.215Z,1018.81
2023-03-03T06:29:04.192Z,1018.84
2023-03-03T06:30:04.187Z,1018.86
2023-03-03T06:31:04.180Z,1018.87
2023-03-03T06:32:04.274Z,1018.87
2023-03-03T06:33:04.163Z,1018.83
2023-03-03T06:34:04.172Z,1018.87
2023-03-03T06:35:04.143Z,1018.88
2023-03-03T06:36:05.858Z,1018.93
2023-03-03T06:37:04.152Z,1018.93
2023-03-03T06:38:04.119Z,1018.90
2023-03-03T06:39:04.114Z,1018.94
2023-03-03T06:40:04.103Z,1018.95
2023-03-03T06:41:04.094Z,1018.95
2023-03-03T06:42:04.083Z,1019.02
2023-03-03T06:43:04.085Z,1019.03
2023-03-03T06:44:04.065Z,1019.07
2023-03-03T06:45:04.076Z,1019.09
2023-03-03T06:46:04.083Z,1019.10
2023-03-03T06:47:04.046Z,1019.09
2023-03-03T06:48:04.049Z,1019.13
2023-03-03T06:49:04.028Z,1019.12
2023-03-03T06:50:04.024Z,1019.09
2023-03-03T06:51:04.012Z,1019.09
2023-03-03T06:52:04.003Z,1019.08
2023-03-03T06:53:04.018Z,1019.11
2023-03-03T06:54:03.984Z,1019.15
2023-03-03T06:55:03.977Z,1019.15
2023-03-03T06:56:03.969Z,1019.15
2023-03-03T06:57:03.959Z,1019.18
2023-03-03T06:58:03.949Z,1019.15
2023-03-03T06:59:03.944Z,1019.16
2023-03-03T07:00:03.966Z,1019.18
2023-03-03T07:01:03.990Z,1019.17
2023-03-03T07:02:03.918Z,1019.19
2023-03-03T07:03:03.922Z,1019.26
2023-03-03T07:04:03.933Z,1019.25
2023-03-03T07:05:03.901Z,1019.20
2023-03-03T07:06:06.104Z,1019.23
2023-03-03T07:07:03.890Z,1019.27
2023-03-03T07:08:03.876Z,1019.27
2023-03-03T07:09:03.898Z,1019.28
2023-03-03T07:10:03.860Z,1019.27
2023-03-03T07:11:03.868Z,1019.23
2023-03-03T07:12:03.847Z,1019.22
2023-03-03T07:13:03.849Z,1019.25
2023-03-03T07:14:03.851Z,1019.27
2023-03-03T07:15:03.826Z,1019.27
2023-03-03T07:16:03.818Z,1019.25
2023-03-03T07:17:03.807Z,1019.25
2023-03-03T07:18:03.798Z,1019.30
2023-03-03T07:19:03.798Z,1019.33
2023-03-03T07:20:03.780Z,1019.27
2023-03-03T07:21:03.777Z,1019.28
2023-03-03T07:22:03.766Z,1019.29
2023-03-03T07:23:03.761Z,1019.36
2023-03-03T07:24:03.751Z,1019.35
2023-03-03T07:25:03.762Z,1019.37
2023-03-03T07:26:03.736Z,1019.38
2023-03-03T07:27:03.729Z,1019.40
2023-03-03T07:28:03.717Z,1019.38
2023-03-03T07:29:03.722Z,1019.41
2023-03-03T07:30:03.704Z,1019.44
2023-03-03T07:31:03.750Z,1019.44
2023-03-03T07:32:03.707Z,1019.40
2023-03-03T07:33:03.680Z,1019.40
2023-03-03T07:34:03.672Z,1019.44
2023-03-03T07:35:03.664Z,1019.40
2023-03-03T07:36:03.655Z,1019.37
2023-03-03T07:37:03.653Z,1019.42
2023-03-03T07:38:03.640Z,1019.40
2023-03-03T07:39:03.637Z,1019.40
2023-03-03T07:40:03.624Z,1019.41
2023-03-03T07:41:03.639Z,1019.41
2023-03-03T07:42:03.608Z,1019.47
2023-03-03T07:43:03.615Z,1019.45
2023-03-03T07:44:03.594Z,1019.50
2023-03-03T07:45:03.593Z,1019.48
2023-03-03T07:46:03.681Z,1019.46
2023-03-03T07:47:03.573Z,1019.47
2023-03-03T07:48:03.571Z,1019.50
2023-03-03T07:49:03.556Z,1019.53
2023-03-03T07:50:03.545Z,1019.52
2023-03-03T07:51:03.543Z,1019.55
2023-03-03T07:52:03.539Z,1019.53
2023-03-03T07:53:03.524Z,1019.54
2023-03-03T07:54:03.516Z,1019.54
2023-03-03T07:55:03.514Z,1019.56
2023-03-03T07:56:03.508Z,1019.56
2023-03-03T07:57:03.516Z,1019.56
2023-03-03T07:58:03.491Z,1019.57
2023-03-03T07:59:03.683Z,1019.58
2023-03-03T08:00:03.487Z,1019.58
2023-03-03T08:01:03.465Z,1019.57
2023-03-03T08:02:03.456Z,1019.60
2023-03-03T08:03:03.458Z,1019.63
2023-03-03T08:04:03.552Z,1019.63
2023-03-03T08:05:05.358Z,1019.65
2023-03-03T08:06:03.423Z,1019.64
2023-03-03T08:07:03.424Z,1019.70
2023-03-03T08:08:03.409Z,1019.69
2023-03-03T08:09:03.405Z,1019.77
2023-03-03T08:10:03.390Z,1019.78
2023-03-03T08:11:03.385Z,1019.77
2023-03-03T08:12:03.371Z,1019.76
2023-03-03T08:13:03.379Z,1019.80
2023-03-03T08:14:03.369Z,1019.75
2023-03-03T08:15:03.348Z,1019.81
2023-03-03T08:16:03.397Z,1019.85
2023-03-03T08:17:03.338Z,1019.85
2023-03-03T08:18:03.329Z,1019.87
2023-03-03T08:19:03.313Z,1019.92
2023-03-03T08:20:03.298Z,1019.91
2023-03-03T08:21:03.291Z,1019.95
2023-03-03T08:22:03.282Z,1019.92
2023-03-03T08:23:03.277Z,1019.95
2023-03-03T08:24:03.272Z,1019.98
2023-03-03T08:25:03.262Z,1019.93
2023-03-03T08:26:03.251Z,1019.96
2023-03-03T08:27:03.245Z,1019.97
2023-03-03T08:28:03.232Z,1019.98
2023-03-03T08:29:03.239Z,1020.01
2023-03-03T08:30:03.211Z,1020.00
2023-03-03T08:31:18.101Z,1020.01
2023-03-03T08:32:03.336Z,1020.02
2023-03-03T08:33:03.189Z,1020.01
2023-03-03T08:34:03.185Z,1020.09
2023-03-03T08:35:03.169Z,1020.08
2023-03-03T08:36:03.169Z,1020.07
2023-03-03T08:37:03.153Z,1020.07
2023-03-03T08:38:03.144Z,1020.05
2023-03-03T08:39:03.135Z,1020.05
2023-03-03T08:40:03.129Z,1020.05
2023-03-03T08:41:03.117Z,1020.03
2023-03-03T08:42:03.122Z,1020.06
2023-03-03T08:43:03.106Z,1020.05
2023-03-03T08:44:03.096Z,1020.08
2023-03-03T08:45:03.105Z,1020.07
2023-03-03T08:46:03.137Z,1020.07
2023-03-03T08:47:03.067Z,1020.09
2023-03-03T08:48:05.608Z,1020.12
2023-03-03T08:49:03.059Z,1020.11
2023-03-03T08:50:03.052Z,1020.12
2023-03-03T08:51:03.047Z,1020.12
2023-03-03T08:52:03.030Z,1020.11
2023-03-03T08:53:03.031Z,1020.12
2023-03-03T08:54:03.016Z,1020.10
2023-03-03T08:55:03.005Z,1020.11
2023-03-03T08:56:02.996Z,1020.11
2023-03-03T08:57:03.005Z,1020.09
2023-03-03T08:58:02.989Z,1020.13
2023-03-03T08:59:03.477Z,1020.14
2023-03-03T09:00:02.973Z,1020.16
2023-03-03T09:01:02.978Z,1020.17
2023-03-03T09:02:02.978Z,1020.19
2023-03-03T09:03:02.943Z,1020.22
2023-03-03T09:04:02.931Z,1020.20
2023-03-03T09:05:02.938Z,1020.20
2023-03-03T09:06:02.916Z,1020.22
2023-03-03T09:07:02.913Z,1020.16
2023-03-03T09:08:02.911Z,1020.15
2023-03-03T09:09:02.897Z,1020.20
2023-03-03T09:10:02.897Z,1020.19
2023-03-03T09:11:02.880Z,1020.28
2023-03-03T09:12:02.868Z,1020.26
2023-03-03T09:13:02.860Z,1020.27
2023-03-03T09:14:02.856Z,1020.29
2023-03-03T09:15:02.854Z,1020.30
2023-03-03T09:16:02.834Z,1020.32
2023-03-03T09:17:02.894Z,1020.26
2023-03-03T09:18:02.817Z,1020.30
2023-03-03T09:19:02.812Z,1020.32
2023-03-03T09:20:02.808Z,1020.33
2023-03-03T09:21:02.794Z,1020.30
2023-03-03T09:22:02.784Z,1020.28
2023-03-03T09:23:02.775Z,1020.29
2023-03-03T09:24:02.767Z,1020.34
2023-03-03T09:25:02.763Z,1020.34
2023-03-03T09:26:02.748Z,1020.35
2023-03-03T09:27:02.740Z,1020.37
2023-03-03T09:28:02.740Z,1020.36
2023-03-03T09:29:02.761Z,1020.41
2023-03-03T09:30:02.720Z,1020.44
2023-03-03T09:31:02.786Z,1020.42
2023-03-03T09:32:03.099Z,1020.45
2023-03-03T09:33:02.711Z,1020.52
2023-03-03T09:34:02.684Z,1020.50
2023-03-03T09:35:02.672Z,1020.52
2023-03-03T09:36:02.664Z,1020.51
2023-03-03T09:37:02.656Z,1020.54
2023-03-03T09:38:02.655Z,1020.59
2023-03-03T09:39:02.637Z,1020.57
2023-03-03T09:40:02.636Z,1020.57
2023-03-03T09:41:02.620Z,1020.55
2023-03-03T09:42:02.614Z,1020.52
2023-03-03T09:43:02.601Z,1020.54
2023-03-03T09:44:02.592Z,1020.53
2023-03-03T09:45:02.585Z,1020.56
2023-03-03T09:46:02.577Z,1020.56
2023-03-03T09:47:02.646Z,1020.57
2023-03-03T09:48:02.560Z,1020.62
2023-03-03T09:49:02.687Z,1020.64
2023-03-03T09:50:02.979Z,1020.61
2023-03-03T09:51:02.532Z,1020.61
2023-03-03T09:52:02.526Z,1020.58
2023-03-03T09:53:02.515Z,1020.63
2023-03-03T09:54:02.510Z,1020.65
2023-03-03T09:55:02.499Z,1020.60
2023-03-03T09:56:02.493Z,1020.61
2023-03-03T09:57:02.481Z,1020.63
2023-03-03T09:58:10.554Z,1020.61
2023-03-03T09:59:02.468Z,1020.63
2023-03-03T10:00:02.468Z,1020.65
2023-03-03T10:01:02.445Z,1020.70
2023-03-03T10:02:03.476Z,1020.71
2023-03-03T10:03:02.462Z,1020.67
2023-03-03T10:04:02.541Z,1020.71
2023-03-03T10:05:02.429Z,1020.69
2023-03-03T10:06:02.410Z,1020.68
2023-03-03T10:07:02.396Z,1020.69
2023-03-03T10:08:02.391Z,1020.71
2023-03-03T10:09:02.377Z,1020.76
2023-03-03T10:10:02.374Z,1020.75
2023-03-03T10:11:02.365Z,1020.72
2023-03-03T10:12:02.353Z,1020.72
2023-03-03T10:13:02.343Z,1020.74
2023-03-03T10:14:02.380Z,1020.74
2023-03-03T10:15:02.326Z,1020.74
2023-03-03T10:16:02.351Z,1020.70
2023-03-03T10:17:02.318Z,1020.74
2023-03-03T10:18:02.302Z,1020.75
2023-03-03T10:19:02.290Z,1020.77
2023-03-03T10:20:02.286Z,1020.75
2023-03-03T10:21:02.290Z,1020.73
2023-03-03T10:22:02.263Z,1020.73
2023-03-03T10:23:02.254Z,1020.71
2023-03-03T10:24:02.250Z,1020.70
2023-03-03T10:25:02.245Z,1020.69
2023-03-03T10:26:02.228Z,1020.72
2023-03-03T10:27:12.965Z,1020.71
2023-03-03T10:28:02.218Z,1020.73
2023-03-03T10:29:02.199Z,1020.72
2023-03-03T10:30:02.285Z,1020.68
2023-03-03T10:31:08.071Z,1020.73
2023-03-03T10:32:02.454Z,1020.71
2023-03-03T10:33:02.337Z,1020.71
2023-03-03T10:34:02.160Z,1020.69
2023-03-03T10:35:02.154Z,1020.72
2023-03-03T10:36:07.455Z,1020.70
2023-03-03T10:37:02.148Z,1020.69
2023-03-03T10:38:02.134Z,1020.68
2023-03-03T10:39:02.115Z,1020.71
2023-03-03T10:40:02.115Z,1020.66
2023-03-03T10:41:02.094Z,1020.72
2023-03-03T10:42:02.088Z,1020.72
2023-03-03T10:43:02.082Z,1020.71
2023-03-03T10:44:02.106Z,1020.73
2023-03-03T10:45:02.247Z,1020.72
2023-03-03T10:46:02.088Z,1020.74
2023-03-03T10:47:02.138Z,1020.78
2023-03-03T10:48:02.329Z,1020.79
2023-03-03T10:49:02.313Z,1020.82
2023-03-03T10:50:02.514Z,1020.79
2023-03-03T10:51:02.355Z,1020.81
2023-03-03T10:52:02.101Z,1020.78
2023-03-03T10:53:02.180Z,1020.79
2023-03-03T10:54:02.032Z,1020.81
2023-03-03T10:55:02.095Z,1020.82
2023-03-03T10:56:02.101Z,1020.85
2023-03-03T10:57:02.009Z,1020.84
2023-03-03T10:58:02.203Z,1020.89
2023-03-03T10:59:02.136Z,1020.86
2023-03-03T11:00:02.080Z,1020.87
2023-03-03T11:01:02.143Z,1020.90
2023-03-03T11:02:02.100Z,1020.91
2023-03-03T11:03:01.921Z,1020.94
2023-03-03T11:04:02.621Z,1020.88
2023-03-03T11:05:02.046Z,1020.86
2023-03-03T11:06:02.522Z,1020.85
2023-03-03T11:07:04.404Z,1020.85
2023-03-03T11:08:02.129Z,1020.84
2023-03-03T11:09:02.015Z,1020.82
2023-03-03T11:10:01.948Z,1020.78
2023-03-03T11:11:01.961Z,1020.80
2023-03-03T11:12:01.955Z,1020.80
2023-03-03T11:13:01.822Z,1020.82
2023-03-03T11:14:02.244Z,1020.83
2023-03-03T11:15:02.213Z,1020.82
2023-03-03T11:16:01.899Z,1020.80
2023-03-03T11:17:02.509Z,1020.79
2023-03-03T11:18:02.391Z,1020.80
2023-03-03T11:19:02.306Z,1020.82
2023-03-03T11:20:02.234Z,1020.84
2023-03-03T11:21:01.762Z,1020.80
2023-03-03T11:22:01.998Z,1020.82
2023-03-03T11:23:02.276Z,1020.80
2023-03-03T11:24:02.245Z,1020.81
2023-03-03T11:25:02.250Z,1020.80
2023-03-03T11:26:02.183Z,1020.83
2023-03-03T11:27:02.398Z,1020.80
2023-03-03T11:28:01.715Z,1020.81
2023-03-03T11:29:01.694Z,1020.77
2023-03-03T11:30:01.688Z,1020.76
2023-03-03T11:31:01.821Z,1020.74
2023-03-03T11:32:01.704Z,1020.78
2023-03-03T11:33:01.666Z,1020.74
2023-03-03T11:34:01.653Z,1020.78
2023-03-03T11:35:01.649Z,1020.76
2023-03-03T11:36:01.690Z,1020.74
2023-03-03T11:37:01.632Z,1020.73
2023-03-03T11:38:01.623Z,1020.75
2023-03-03T11:39:01.612Z,1020.75
2023-03-03T11:40:01.612Z,1020.70
2023-03-03T11:41:01.612Z,1020.77
2023-03-03T11:42:01.594Z,1020.72
2023-03-03T11:43:01.577Z,1020.70
2023-03-03T11:44:01.573Z,1020.68
2023-03-03T11:45:01.576Z,1020.66
2023-03-03T11:46:01.618Z,1020.67
2023-03-03T11:47:01.556Z,1020.72
2023-03-03T11:48:01.561Z,1020.72
2023-03-03T11:49:01.539Z,1020.63
2023-03-03T11:50:01.543Z,1020.60
2023-03-03T11:51:01.520Z,1020.63
2023-03-03T11:52:01.514Z,1020.58
2023-03-03T11:53:01.501Z,1020.58
2023-03-03T11:54:01.492Z,1020.63
2023-03-03T11:55:01.488Z,1020.56
2023-03-03T11:56:01.477Z,1020.58
2023-03-03T11:57:01.493Z,1020.56
2023-03-03T11:58:01.460Z,1020.59
2023-03-03T11:59:01.451Z,1020.53
2023-03-03T12:00:01.448Z,1020.56
2023-03-03T12:01:03.960Z,1020.50
2023-03-03T12:02:01.426Z,1020.55
2023-03-03T12:03:01.415Z,1020.53
2023-03-03T12:04:01.410Z,1020.54
2023-03-03T12:05:01.407Z,1020.49